sensor_id;sensor_type;location;lat;lon;timestamp;P1;durP1;ratioP1;P2;durP2;ratioP2
6280;SDS011;3173;48.204;11.612;2022-08-19T00:00:05;6.53;;;5.23;;
6280;SDS011;3173;48.204;11.612;2022-08-19T00:02:33;5.17;;;4.67;;
6280;SDS011;3173;48.204;11.612;2022-08-19T00:04:59;5.37;;;4.30;;
6280;SDS011;3173;48.204;11.612;2022-08-19T00:07:25;6.13;;;4.27;;
6280;SDS011;3173;48.204;11.612;2022-08-19T00:09:51;6.13;;;4.50;;
6280;SDS011;3173;48.204;11.612;2022-08-19T00:12:17;5.07;;;4.07;;
6280;SDS011;3173;48.204;11.612;2022-08-19T00:14:43;6.43;;;4.30;;
6280;SDS011;3173;48.204;11.612;2022-08-19T00:17:09;5.03;;;4.37;;
6280;SDS011;3173;48.204;11.612;2022-08-19T00:19:35;6.00;;;4.23;;
6280;SDS011;3173;48.204;11.612;2022-08-19T00:22:02;7.00;;;4.33;;
6280;SDS011;3173;48.204;11.612;2022-08-19T00:24:28;5.07;;;4.47;;
6280;SDS011;3173;48.204;11.612;2022-08-19T00:26:55;5.57;;;4.37;;
6280;SDS011;3173;48.204;11.612;2022-08-19T00:29:22;7.20;;;4.90;;
6280;SDS011;3173;48.204;11.612;2022-08-19T00:31:49;6.37;;;4.80;;
6280;SDS011;3173;48.204;11.612;2022-08-19T00:34:17;6.63;;;5.93;;
6280;SDS011;3173;48.204;11.612;2022-08-19T00:36:43;8.00;;;6.00;;
6280;SDS011;3173;48.204;11.612;2022-08-19T00:39:10;9.17;;;5.93;;
6280;SDS011;3173;48.204;11.612;2022-08-19T00:41:36;6.47;;;5.20;;
6280;SDS011;3173;48.204;11.612;2022-08-19T00:44:04;6.63;;;5.13;;
6280;SDS011;3173;48.204;11.612;2022-08-19T00:46:31;7.33;;;6.33;;
6280;SDS011;3173;48.204;11.612;2022-08-19T00:48:58;8.27;;;6.90;;
6280;SDS011;3173;48.204;11.612;2022-08-19T00:51:26;13.17;;;6.90;;
6280;SDS011;3173;48.204;11.612;2022-08-19T00:53:53;8.57;;;7.43;;
6280;SDS011;3173;48.204;11.612;2022-08-19T00:56:20;8.70;;;6.90;;
6280;SDS011;3173;48.204;11.612;2022-08-19T00:58:46;9.40;;;7.40;;
6280;SDS011;3173;48.204;11.612;2022-08-19T01:01:13;9.60;;;7.80;;
6280;SDS011;3173;48.204;11.612;2022-08-19T01:03:39;10.83;;;8.47;;
6280;SDS011;3173;48.204;11.612;2022-08-19T01:06:05;13.83;;;8.73;;
6280;SDS011;3173;48.204;11.612;2022-08-19T01:08:31;11.70;;;8.40;;
6280;SDS011;3173;48.204;11.612;2022-08-19T01:10:58;10.90;;;8.87;;
6280;SDS011;3173;48.204;11.612;2022-08-19T01:13:29;10.70;;;8.17;;
6280;SDS011;3173;48.204;11.612;2022-08-19T01:16:07;14.10;;;9.50;;
6280;SDS011;3173;48.204;11.612;2022-08-19T01:18:35;11.77;;;9.20;;
6280;SDS011;3173;48.204;11.612;2022-08-19T01:21:05;13.20;;;10.00;;
6280;SDS011;3173;48.204;11.612;2022-08-19T01:23:33;10.70;;;9.07;;
6280;SDS011;3173;48.204;11.612;2022-08-19T01:26:10;13.03;;;8.50;;
6280;SDS011;3173;48.204;11.612;2022-08-19T01:28:37;12.73;;;9.70;;
6280;SDS011;3173;48.204;11.612;2022-08-19T01:31:03;11.67;;;9.17;;
6280;SDS011;3173;48.204;11.612;2022-08-19T01:33:29;13.50;;;10.10;;
6280;SDS011;3173;48.204;11.612;2022-08-19T01:36:03;10.80;;;9.10;;
6280;SDS011;3173;48.204;11.612;2022-08-19T01:38:29;12.43;;;9.77;;
6280;SDS011;3173;48.204;11.612;2022-08-19T01:40:56;14.13;;;9.93;;
6280;SDS011;3173;48.204;11.612;2022-08-19T01:43:23;11.67;;;9.13;;
6280;SDS011;3173;48.204;11.612;2022-08-19T01:45:49;12.23;;;9.90;;
6280;SDS011;3173;48.204;11.612;2022-08-19T01:48:16;14.40;;;10.23;;
6280;SDS011;3173;48.204;11.612;2022-08-19T01:50:42;14.20;;;11.57;;
6280;SDS011;3173;48.204;11.612;2022-08-19T01:53:10;13.33;;;11.17;;
6280;SDS011;3173;48.204;11.612;2022-08-19T01:55:36;16.13;;;11.20;;
6280;SDS011;3173;48.204;11.612;2022-08-19T01:58:04;14.17;;;10.90;;
6280;SDS011;3173;48.204;11.612;2022-08-19T02:00:31;11.73;;;10.10;;
6280;SDS011;3173;48.204;11.612;2022-08-19T02:02:57;11.87;;;10.50;;
6280;SDS011;3173;48.204;11.612;2022-08-19T02:05:24;15.40;;;11.43;;
6280;SDS011;3173;48.204;11.612;2022-08-19T02:07:50;12.80;;;10.37;;
6280;SDS011;3173;48.204;11.612;2022-08-19T02:10:18;12.90;;;10.70;;
6280;SDS011;3173;48.204;11.612;2022-08-19T02:12:44;13.20;;;10.73;;
6280;SDS011;3173;48.204;11.612;2022-08-19T02:15:11;13.33;;;10.70;;
6280;SDS011;3173;48.204;11.612;2022-08-19T02:17:37;14.23;;;10.60;;
6280;SDS011;3173;48.204;11.612;2022-08-19T02:20:03;14.40;;;11.03;;
6280;SDS011;3173;48.204;11.612;2022-08-19T02:22:30;12.67;;;9.70;;
6280;SDS011;3173;48.204;11.612;2022-08-19T02:24:56;14.50;;;10.23;;
6280;SDS011;3173;48.204;11.612;2022-08-19T02:27:22;12.77;;;9.17;;
6280;SDS011;3173;48.204;11.612;2022-08-19T02:29:49;11.40;;;9.47;;
6280;SDS011;3173;48.204;11.612;2022-08-19T02:32:16;12.50;;;10.80;;
6280;SDS011;3173;48.204;11.612;2022-08-19T02:34:44;13.23;;;9.53;;
6280;SDS011;3173;48.204;11.612;2022-08-19T02:37:10;14.00;;;8.87;;
6280;SDS011;3173;48.204;11.612;2022-08-19T02:39:56;11.90;;;8.73;;
6280;SDS011;3173;48.204;11.612;2022-08-19T02:42:22;11.60;;;8.50;;
6280;SDS011;3173;48.204;11.612;2022-08-19T02:44:48;12.03;;;9.93;;
6280;SDS011;3173;48.204;11.612;2022-08-19T02:47:14;11.60;;;8.93;;
6280;SDS011;3173;48.204;11.612;2022-08-19T02:49:40;11.27;;;9.00;;
6280;SDS011;3173;48.204;11.612;2022-08-19T02:52:06;10.87;;;9.30;;
6280;SDS011;3173;48.204;11.612;2022-08-19T02:54:32;10.70;;;8.93;;
6280;SDS011;3173;48.204;11.612;2022-08-19T02:56:58;9.33;;;8.23;;
6280;SDS011;3173;48.204;11.612;2022-08-19T02:59:24;12.20;;;9.00;;
6280;SDS011;3173;48.204;11.612;2022-08-19T03:01:51;10.37;;;8.50;;
6280;SDS011;3173;48.204;11.612;2022-08-19T03:04:17;7.73;;;6.90;;
6280;SDS011;3173;48.204;11.612;2022-08-19T03:06:44;10.23;;;7.77;;
6280;SDS011;3173;48.204;11.612;2022-08-19T03:09:11;11.30;;;8.53;;
6280;SDS011;3173;48.204;11.612;2022-08-19T03:11:37;9.80;;;8.00;;
6280;SDS011;3173;48.204;11.612;2022-08-19T03:14:04;10.93;;;8.10;;
6280;SDS011;3173;48.204;11.612;2022-08-19T03:16:33;10.93;;;8.67;;
6280;SDS011;3173;48.204;11.612;2022-08-19T03:19:00;9.20;;;7.80;;
6280;SDS011;3173;48.204;11.612;2022-08-19T03:21:27;10.57;;;7.90;;
6280;SDS011;3173;48.204;11.612;2022-08-19T03:23:54;9.67;;;7.60;;
6280;SDS011;3173;48.204;11.612;2022-08-19T03:26:21;9.33;;;7.77;;
6280;SDS011;3173;48.204;11.612;2022-08-19T03:28:47;11.03;;;8.60;;
6280;SDS011;3173;48.204;11.612;2022-08-19T03:31:15;11.40;;;8.20;;
6280;SDS011;3173;48.204;11.612;2022-08-19T03:33:41;9.50;;;7.40;;
6280;SDS011;3173;48.204;11.612;2022-08-19T03:36:08;9.30;;;7.50;;
6280;SDS011;3173;48.204;11.612;2022-08-19T03:38:42;8.60;;;7.70;;
6280;SDS011;3173;48.204;11.612;2022-08-19T03:41:11;10.63;;;8.60;;
6280;SDS011;3173;48.204;11.612;2022-08-19T03:43:39;11.13;;;8.50;;
6280;SDS011;3173;48.204;11.612;2022-08-19T03:46:10;10.90;;;9.37;;
6280;SDS011;3173;48.204;11.612;2022-08-19T03:48:36;11.80;;;9.27;;
6280;SDS011;3173;48.204;11.612;2022-08-19T03:51:03;11.37;;;9.20;;
6280;SDS011;3173;48.204;11.612;2022-08-19T03:53:29;11.60;;;8.93;;
6280;SDS011;3173;48.204;11.612;2022-08-19T03:55:56;18.40;;;10.37;;
6280;SDS011;3173;48.204;11.612;2022-08-19T03:58:25;11.33;;;9.33;;
6280;SDS011;3173;48.204;11.612;2022-08-19T04:00:53;12.23;;;9.77;;
6280;SDS011;3173;48.204;11.612;2022-08-19T04:03:19;10.90;;;9.13;;
6280;SDS011;3173;48.204;11.612;2022-08-19T04:05:45;10.03;;;8.50;;
6280;SDS011;3173;48.204;11.612;2022-08-19T04:08:12;11.10;;;8.10;;
6280;SDS011;3173;48.204;11.612;2022-08-19T04:10:38;15.10;;;9.60;;
6280;SDS011;3173;48.204;11.612;2022-08-19T04:13:05;13.90;;;10.40;;
6280;SDS011;3173;48.204;11.612;2022-08-19T04:15:32;16.43;;;9.90;;
6280;SDS011;3173;48.204;11.612;2022-08-19T04:18:04;12.83;;;10.10;;
6280;SDS011;3173;48.204;11.612;2022-08-19T04:20:33;13.63;;;10.03;;
6280;SDS011;3173;48.204;11.612;2022-08-19T04:22:59;11.90;;;8.83;;
6280;SDS011;3173;48.204;11.612;2022-08-19T04:25:25;15.00;;;10.13;;
6280;SDS011;3173;48.204;11.612;2022-08-19T04:27:50;11.20;;;9.17;;
6280;SDS011;3173;48.204;11.612;2022-08-19T04:30:16;13.40;;;9.70;;
6280;SDS011;3173;48.204;11.612;2022-08-19T04:32:44;10.67;;;9.20;;
6280;SDS011;3173;48.204;11.612;2022-08-19T04:35:10;15.60;;;11.00;;
6280;SDS011;3173;48.204;11.612;2022-08-19T04:37:36;15.43;;;9.80;;
6280;SDS011;3173;48.204;11.612;2022-08-19T04:40:03;17.30;;;9.47;;
6280;SDS011;3173;48.204;11.612;2022-08-19T04:42:48;14.23;;;9.87;;
6280;SDS011;3173;48.204;11.612;2022-08-19T04:45:14;12.80;;;9.20;;
6280;SDS011;3173;48.204;11.612;2022-08-19T04:47:41;13.57;;;10.10;;
6280;SDS011;3173;48.204;11.612;2022-08-19T04:50:07;12.73;;;9.10;;
6280;SDS011;3173;48.204;11.612;2022-08-19T04:52:34;13.37;;;10.60;;
6280;SDS011;3173;48.204;11.612;2022-08-19T04:55:00;14.90;;;10.87;;
6280;SDS011;3173;48.204;11.612;2022-08-19T04:57:25;17.70;;;11.80;;
6280;SDS011;3173;48.204;11.612;2022-08-19T04:59:55;14.90;;;11.33;;
6280;SDS011;3173;48.204;11.612;2022-08-19T05:02:21;16.40;;;11.63;;
6280;SDS011;3173;48.204;11.612;2022-08-19T05:04:51;18.50;;;12.93;;
6280;SDS011;3173;48.204;11.612;2022-08-19T05:07:17;15.77;;;11.57;;
6280;SDS011;3173;48.204;11.612;2022-08-19T05:09:43;13.80;;;11.33;;
6280;SDS011;3173;48.204;11.612;2022-08-19T05:12:09;17.93;;;10.70;;
6280;SDS011;3173;48.204;11.612;2022-08-19T05:14:35;17.17;;;10.60;;
6280;SDS011;3173;48.204;11.612;2022-08-19T05:17:01;12.93;;;10.43;;
6280;SDS011;3173;48.204;11.612;2022-08-19T05:19:27;17.17;;;11.30;;
6280;SDS011;3173;48.204;11.612;2022-08-19T05:22:12;13.07;;;10.70;;
6280;SDS011;3173;48.204;11.612;2022-08-19T05:24:56;16.47;;;12.57;;
6280;SDS011;3173;48.204;11.612;2022-08-19T05:27:22;16.10;;;11.23;;
6280;SDS011;3173;48.204;11.612;2022-08-19T05:29:48;16.03;;;11.87;;
6280;SDS011;3173;48.204;11.612;2022-08-19T05:32:14;14.37;;;11.67;;
6280;SDS011;3173;48.204;11.612;2022-08-19T05:34:40;15.63;;;11.77;;
6280;SDS011;3173;48.204;11.612;2022-08-19T05:37:06;14.63;;;11.53;;
6280;SDS011;3173;48.204;11.612;2022-08-19T05:39:34;16.37;;;13.03;;
6280;SDS011;3173;48.204;11.612;2022-08-19T05:42:03;17.20;;;12.60;;
6280;SDS011;3173;48.204;11.612;2022-08-19T05:44:30;13.83;;;9.63;;
6280;SDS011;3173;48.204;11.612;2022-08-19T05:46:57;16.00;;;12.00;;
6280;SDS011;3173;48.204;11.612;2022-08-19T05:49:25;17.57;;;11.60;;
6280;SDS011;3173;48.204;11.612;2022-08-19T05:51:52;16.20;;;11.93;;
6280;SDS011;3173;48.204;11.612;2022-08-19T05:54:18;15.63;;;11.63;;
6280;SDS011;3173;48.204;11.612;2022-08-19T05:56:44;15.27;;;11.83;;
6280;SDS011;3173;48.204;11.612;2022-08-19T05:59:12;15.40;;;12.03;;
6280;SDS011;3173;48.204;11.612;2022-08-19T06:01:42;14.10;;;10.87;;
6280;SDS011;3173;48.204;11.612;2022-08-19T06:04:09;15.90;;;11.43;;
6280;SDS011;3173;48.204;11.612;2022-08-19T06:06:35;15.07;;;11.50;;
6280;SDS011;3173;48.204;11.612;2022-08-19T06:09:02;13.17;;;10.23;;
6280;SDS011;3173;48.204;11.612;2022-08-19T06:11:42;13.80;;;10.87;;
6280;SDS011;3173;48.204;11.612;2022-08-19T06:14:10;14.80;;;11.80;;
6280;SDS011;3173;48.204;11.612;2022-08-19T06:16:37;12.90;;;10.33;;
6280;SDS011;3173;48.204;11.612;2022-08-19T06:19:04;16.70;;;12.10;;
6280;SDS011;3173;48.204;11.612;2022-08-19T06:21:32;18.53;;;13.50;;
6280;SDS011;3173;48.204;11.612;2022-08-19T06:23:58;16.80;;;12.80;;
6280;SDS011;3173;48.204;11.612;2022-08-19T06:26:25;16.80;;;12.67;;
6280;SDS011;3173;48.204;11.612;2022-08-19T06:28:51;18.13;;;13.57;;
6280;SDS011;3173;48.204;11.612;2022-08-19T06:31:22;17.37;;;12.50;;
6280;SDS011;3173;48.204;11.612;2022-08-19T06:33:49;15.80;;;12.30;;
6280;SDS011;3173;48.204;11.612;2022-08-19T06:36:35;16.23;;;11.80;;
6280;SDS011;3173;48.204;11.612;2022-08-19T06:39:05;16.70;;;12.83;;
6280;SDS011;3173;48.204;11.612;2022-08-19T06:41:33;15.83;;;12.53;;
6280;SDS011;3173;48.204;11.612;2022-08-19T06:43:59;16.63;;;11.60;;
6280;SDS011;3173;48.204;11.612;2022-08-19T06:46:25;16.10;;;12.87;;
6280;SDS011;3173;48.204;11.612;2022-08-19T06:48:51;16.70;;;12.20;;
6280;SDS011;3173;48.204;11.612;2022-08-19T06:51:18;16.27;;;11.70;;
6280;SDS011;3173;48.204;11.612;2022-08-19T06:53:48;17.80;;;12.90;;
6280;SDS011;3173;48.204;11.612;2022-08-19T06:56:14;17.27;;;12.63;;
6280;SDS011;3173;48.204;11.612;2022-08-19T06:58:41;17.23;;;12.63;;
6280;SDS011;3173;48.204;11.612;2022-08-19T07:01:07;15.30;;;12.80;;
6280;SDS011;3173;48.204;11.612;2022-08-19T07:03:33;16.93;;;12.97;;
6280;SDS011;3173;48.204;11.612;2022-08-19T07:06:04;22.60;;;14.80;;
6280;SDS011;3173;48.204;11.612;2022-08-19T07:08:30;17.33;;;14.10;;
6280;SDS011;3173;48.204;11.612;2022-08-19T07:10:56;20.27;;;15.53;;
6280;SDS011;3173;48.204;11.612;2022-08-19T07:13:22;20.13;;;15.43;;
6280;SDS011;3173;48.204;11.612;2022-08-19T07:15:48;18.33;;;14.93;;
6280;SDS011;3173;48.204;11.612;2022-08-19T07:18:15;17.83;;;14.87;;
6280;SDS011;3173;48.204;11.612;2022-08-19T07:20:41;21.53;;;16.90;;
6280;SDS011;3173;48.204;11.612;2022-08-19T07:23:08;21.97;;;16.60;;
6280;SDS011;3173;48.204;11.612;2022-08-19T07:25:35;22.60;;;16.83;;
6280;SDS011;3173;48.204;11.612;2022-08-19T07:28:01;23.47;;;18.70;;
6280;SDS011;3173;48.204;11.612;2022-08-19T07:30:27;27.73;;;19.70;;
6280;SDS011;3173;48.204;11.612;2022-08-19T07:32:53;26.37;;;18.00;;
6280;SDS011;3173;48.204;11.612;2022-08-19T07:35:21;27.00;;;19.13;;
6280;SDS011;3173;48.204;11.612;2022-08-19T07:37:47;27.37;;;20.10;;
6280;SDS011;3173;48.204;11.612;2022-08-19T07:40:13;27.07;;;20.27;;
6280;SDS011;3173;48.204;11.612;2022-08-19T07:42:39;24.10;;;19.13;;
6280;SDS011;3173;48.204;11.612;2022-08-19T07:45:05;28.67;;;19.30;;
6280;SDS011;3173;48.204;11.612;2022-08-19T07:47:31;29.73;;;19.73;;
6280;SDS011;3173;48.204;11.612;2022-08-19T07:49:57;28.20;;;19.90;;
6280;SDS011;3173;48.204;11.612;2022-08-19T07:52:23;29.57;;;20.33;;
6280;SDS011;3173;48.204;11.612;2022-08-19T07:54:49;30.00;;;20.37;;
6280;SDS011;3173;48.204;11.612;2022-08-19T07:57:16;32.53;;;22.50;;
6280;SDS011;3173;48.204;11.612;2022-08-19T07:59:44;31.40;;;22.40;;
6280;SDS011;3173;48.204;11.612;2022-08-19T08:02:10;30.77;;;21.17;;
6280;SDS011;3173;48.204;11.612;2022-08-19T08:04:36;33.10;;;22.83;;
6280;SDS011;3173;48.204;11.612;2022-08-19T08:07:21;33.63;;;23.20;;
6280;SDS011;3173;48.204;11.612;2022-08-19T08:10:06;35.50;;;22.97;;
6280;SDS011;3173;48.204;11.612;2022-08-19T08:12:38;31.17;;;22.70;;
6280;SDS011;3173;48.204;11.612;2022-08-19T08:15:10;30.77;;;22.77;;
6280;SDS011;3173;48.204;11.612;2022-08-19T08:17:36;35.00;;;24.13;;
6280;SDS011;3173;48.204;11.612;2022-08-19T08:20:05;33.70;;;25.50;;
6280;SDS011;3173;48.204;11.612;2022-08-19T08:22:33;39.27;;;26.30;;
6280;SDS011;3173;48.204;11.612;2022-08-19T08:25:19;42.97;;;25.00;;
6280;SDS011;3173;48.204;11.612;2022-08-19T08:27:45;40.10;;;27.63;;
6280;SDS011;3173;48.204;11.612;2022-08-19T08:30:30;41.70;;;27.23;;
6280;SDS011;3173;48.204;11.612;2022-08-19T08:32:58;45.67;;;27.80;;
6280;SDS011;3173;48.204;11.612;2022-08-19T08:35:24;39.90;;;27.40;;
6280;SDS011;3173;48.204;11.612;2022-08-19T08:37:51;41.97;;;28.30;;
6280;SDS011;3173;48.204;11.612;2022-08-19T08:40:22;40.30;;;27.33;;
6280;SDS011;3173;48.204;11.612;2022-08-19T08:43:35;42.83;;;28.07;;
6280;SDS011;3173;48.204;11.612;2022-08-19T08:45:36;52.57;;;28.80;;
6280;SDS011;3173;48.204;11.612;2022-08-19T08:48:07;42.17;;;28.73;;
6280;SDS011;3173;48.204;11.612;2022-08-19T08:50:39;41.30;;;27.97;;
6280;SDS011;3173;48.204;11.612;2022-08-19T08:53:07;42.30;;;26.80;;
6280;SDS011;3173;48.204;11.612;2022-08-19T08:55:34;43.80;;;28.90;;
6280;SDS011;3173;48.204;11.612;2022-08-19T08:58:01;45.63;;;27.93;;
6280;SDS011;3173;48.204;11.612;2022-08-19T09:00:28;42.23;;;28.00;;
6280;SDS011;3173;48.204;11.612;2022-08-19T09:02:56;41.27;;;26.70;;
6280;SDS011;3173;48.204;11.612;2022-08-19T09:05:22;39.77;;;25.73;;
6280;SDS011;3173;48.204;11.612;2022-08-19T09:07:57;37.60;;;26.00;;
6280;SDS011;3173;48.204;11.612;2022-08-19T09:13:04;41.17;;;25.77;;
6280;SDS011;3173;48.204;11.612;2022-08-19T09:15:34;37.97;;;26.70;;
6280;SDS011;3173;48.204;11.612;2022-08-19T09:18:03;36.83;;;26.70;;
6280;SDS011;3173;48.204;11.612;2022-08-19T09:20:29;38.80;;;26.47;;
6280;SDS011;3173;48.204;11.612;2022-08-19T09:22:56;38.93;;;25.90;;
6280;SDS011;3173;48.204;11.612;2022-08-19T09:25:23;38.17;;;25.10;;
6280;SDS011;3173;48.204;11.612;2022-08-19T09:27:49;38.50;;;25.57;;
6280;SDS011;3173;48.204;11.612;2022-08-19T09:30:23;34.47;;;25.13;;
6280;SDS011;3173;48.204;11.612;2022-08-19T09:32:50;39.60;;;27.37;;
6280;SDS011;3173;48.204;11.612;2022-08-19T09:35:20;36.90;;;25.17;;
6280;SDS011;3173;48.204;11.612;2022-08-19T09:37:47;41.33;;;27.57;;
6280;SDS011;3173;48.204;11.612;2022-08-19T09:40:14;38.20;;;24.63;;
6280;SDS011;3173;48.204;11.612;2022-08-19T09:42:40;34.50;;;25.77;;
6280;SDS011;3173;48.204;11.612;2022-08-19T09:45:08;36.80;;;25.97;;
6280;SDS011;3173;48.204;11.612;2022-08-19T09:47:34;43.50;;;27.03;;
6280;SDS011;3173;48.204;11.612;2022-08-19T09:50:03;36.20;;;26.10;;
6280;SDS011;3173;48.204;11.612;2022-08-19T09:52:30;40.87;;;26.60;;
6280;SDS011;3173;48.204;11.612;2022-08-19T09:54:56;41.70;;;26.97;;
6280;SDS011;3173;48.204;11.612;2022-08-19T09:57:22;38.07;;;28.03;;
6280;SDS011;3173;48.204;11.612;2022-08-19T09:59:48;41.97;;;27.70;;
6280;SDS011;3173;48.204;11.612;2022-08-19T10:02:14;47.97;;;27.27;;
6280;SDS011;3173;48.204;11.612;2022-08-19T10:04:40;36.43;;;25.93;;
6280;SDS011;3173;48.204;11.612;2022-08-19T10:07:24;37.23;;;25.67;;
6280;SDS011;3173;48.204;11.612;2022-08-19T10:09:50;38.83;;;27.10;;
6280;SDS011;3173;48.204;11.612;2022-08-19T10:12:16;38.57;;;26.33;;
6280;SDS011;3173;48.204;11.612;2022-08-19T10:14:42;53.80;;;26.87;;
6280;SDS011;3173;48.204;11.612;2022-08-19T10:17:10;40.10;;;26.30;;
6280;SDS011;3173;48.204;11.612;2022-08-19T10:19:36;36.80;;;24.90;;
6280;SDS011;3173;48.204;11.612;2022-08-19T10:22:04;35.73;;;24.17;;
6280;SDS011;3173;48.204;11.612;2022-08-19T10:24:30;31.90;;;22.60;;
6280;SDS011;3173;48.204;11.612;2022-08-19T10:26:56;31.83;;;19.97;;
6280;SDS011;3173;48.204;11.612;2022-08-19T10:29:22;27.10;;;18.80;;
6280;SDS011;3173;48.204;11.612;2022-08-19T10:31:48;23.93;;;18.90;;
6280;SDS011;3173;48.204;11.612;2022-08-19T10:34:14;25.30;;;17.93;;
6280;SDS011;3173;48.204;11.612;2022-08-19T10:36:40;23.60;;;16.70;;
6280;SDS011;3173;48.204;11.612;2022-08-19T10:39:07;26.03;;;17.63;;
6280;SDS011;3173;48.204;11.612;2022-08-19T10:41:34;25.97;;;18.33;;
6280;SDS011;3173;48.204;11.612;2022-08-19T10:44:02;25.90;;;18.57;;
6280;SDS011;3173;48.204;11.612;2022-08-19T10:46:29;28.57;;;17.87;;
6280;SDS011;3173;48.204;11.612;2022-08-19T10:48:59;23.60;;;16.87;;
6280;SDS011;3173;48.204;11.612;2022-08-19T10:51:26;22.13;;;16.63;;
6280;SDS011;3173;48.204;11.612;2022-08-19T10:54:10;22.33;;;16.80;;
6280;SDS011;3173;48.204;11.612;2022-08-19T10:56:37;23.80;;;17.10;;
6280;SDS011;3173;48.204;11.612;2022-08-19T10:59:19;22.23;;;14.83;;
6280;SDS011;3173;48.204;11.612;2022-08-19T11:01:46;23.13;;;16.23;;
6280;SDS011;3173;48.204;11.612;2022-08-19T11:04:12;18.43;;;15.37;;
6280;SDS011;3173;48.204;11.612;2022-08-19T11:06:39;21.10;;;14.47;;
6280;SDS011;3173;48.204;11.612;2022-08-19T11:09:05;18.93;;;14.53;;
6280;SDS011;3173;48.204;11.612;2022-08-19T11:11:31;22.07;;;15.40;;
6280;SDS011;3173;48.204;11.612;2022-08-19T11:13:57;19.07;;;15.03;;
6280;SDS011;3173;48.204;11.612;2022-08-19T11:16:24;18.97;;;14.07;;
6280;SDS011;3173;48.204;11.612;2022-08-19T11:18:56;17.47;;;13.23;;
6280;SDS011;3173;48.204;11.612;2022-08-19T11:21:27;13.07;;;11.20;;
6280;SDS011;3173;48.204;11.612;2022-08-19T11:23:56;12.80;;;10.63;;
6280;SDS011;3173;48.204;11.612;2022-08-19T11:26:23;9.97;;;8.40;;
6280;SDS011;3173;48.204;11.612;2022-08-19T11:28:49;8.83;;;6.83;;
6280;SDS011;3173;48.204;11.612;2022-08-19T11:31:22;9.37;;;7.07;;
6280;SDS011;3173;48.204;11.612;2022-08-19T11:33:49;7.30;;;5.80;;
6280;SDS011;3173;48.204;11.612;2022-08-19T11:36:19;5.40;;;4.70;;
6280;SDS011;3173;48.204;11.612;2022-08-19T11:38:46;5.40;;;4.67;;
6280;SDS011;3173;48.204;11.612;2022-08-19T11:41:13;4.10;;;3.20;;
6280;SDS011;3173;48.204;11.612;2022-08-19T11:43:39;3.97;;;3.30;;
6280;SDS011;3173;48.204;11.612;2022-08-19T11:46:06;3.87;;;2.83;;
6280;SDS011;3173;48.204;11.612;2022-08-19T11:48:32;3.83;;;2.77;;
6280;SDS011;3173;48.204;11.612;2022-08-19T11:50:58;3.10;;;2.50;;
6280;SDS011;3173;48.204;11.612;2022-08-19T11:53:24;3.00;;;2.70;;
6280;SDS011;3173;48.204;11.612;2022-08-19T11:55:52;4.03;;;2.53;;
6280;SDS011;3173;48.204;11.612;2022-08-19T11:58:20;2.20;;;1.80;;
6280;SDS011;3173;48.204;11.612;2022-08-19T12:00:46;2.20;;;2.00;;
6280;SDS011;3173;48.204;11.612;2022-08-19T12:03:13;2.30;;;1.80;;
6280;SDS011;3173;48.204;11.612;2022-08-19T12:05:39;2.20;;;1.80;;
6280;SDS011;3173;48.204;11.612;2022-08-19T12:08:06;2.43;;;2.23;;
6280;SDS011;3173;48.204;11.612;2022-08-19T12:10:32;3.07;;;2.03;;
6280;SDS011;3173;48.204;11.612;2022-08-19T12:12:58;2.93;;;1.80;;
6280;SDS011;3173;48.204;11.612;2022-08-19T12:15:25;3.40;;;2.23;;
6280;SDS011;3173;48.204;11.612;2022-08-19T12:17:54;2.07;;;1.47;;
6280;SDS011;3173;48.204;11.612;2022-08-19T12:20:21;1.40;;;1.17;;
6280;SDS011;3173;48.204;11.612;2022-08-19T12:22:48;2.07;;;1.40;;
6280;SDS011;3173;48.204;11.612;2022-08-19T12:25:14;1.50;;;1.20;;
6280;SDS011;3173;48.204;11.612;2022-08-19T12:27:40;1.93;;;1.23;;
6280;SDS011;3173;48.204;11.612;2022-08-19T12:30:06;1.53;;;1.10;;
6280;SDS011;3173;48.204;11.612;2022-08-19T12:32:33;2.17;;;1.20;;
6280;SDS011;3173;48.204;11.612;2022-08-19T12:34:59;2.80;;;1.53;;
6280;SDS011;3173;48.204;11.612;2022-08-19T12:37:25;1.67;;;1.10;;
6280;SDS011;3173;48.204;11.612;2022-08-19T12:39:51;1.70;;;1.50;;
6280;SDS011;3173;48.204;11.612;2022-08-19T12:42:17;1.50;;;1.30;;
6280;SDS011;3173;48.204;11.612;2022-08-19T12:44:44;1.40;;;1.10;;
6280;SDS011;3173;48.204;11.612;2022-08-19T12:47:11;1.80;;;1.10;;
6280;SDS011;3173;48.204;11.612;2022-08-19T12:49:38;1.47;;;1.30;;
6280;SDS011;3173;48.204;11.612;2022-08-19T12:52:06;2.50;;;1.13;;
6280;SDS011;3173;48.204;11.612;2022-08-19T12:54:32;1.63;;;0.90;;
6280;SDS011;3173;48.204;11.612;2022-08-19T12:56:58;1.60;;;1.00;;
6280;SDS011;3173;48.204;11.612;2022-08-19T12:59:25;2.47;;;1.17;;
6280;SDS011;3173;48.204;11.612;2022-08-19T13:01:51;1.53;;;1.00;;
6280;SDS011;3173;48.204;11.612;2022-08-19T13:04:17;1.30;;;0.90;;
6280;SDS011;3173;48.204;11.612;2022-08-19T13:06:44;2.70;;;1.23;;
6280;SDS011;3173;48.204;11.612;2022-08-19T13:09:10;1.27;;;0.90;;
6280;SDS011;3173;48.204;11.612;2022-08-19T13:11:36;1.33;;;0.80;;
6280;SDS011;3173;48.204;11.612;2022-08-19T13:14:02;1.27;;;0.90;;
6280;SDS011;3173;48.204;11.612;2022-08-19T13:16:29;3.10;;;1.40;;
6280;SDS011;3173;48.204;11.612;2022-08-19T13:18:55;1.30;;;0.90;;
6280;SDS011;3173;48.204;11.612;2022-08-19T13:21:22;1.10;;;0.80;;
6280;SDS011;3173;48.204;11.612;2022-08-19T13:23:48;1.20;;;0.83;;
6280;SDS011;3173;48.204;11.612;2022-08-19T13:26:14;1.07;;;0.80;;
6280;SDS011;3173;48.204;11.612;2022-08-19T13:28:41;1.20;;;0.77;;
6280;SDS011;3173;48.204;11.612;2022-08-19T13:31:27;1.50;;;1.00;;
6280;SDS011;3173;48.204;11.612;2022-08-19T13:34:11;1.30;;;0.90;;
6280;SDS011;3173;48.204;11.612;2022-08-19T13:36:38;2.43;;;1.60;;
6280;SDS011;3173;48.204;11.612;2022-08-19T13:39:04;2.33;;;1.50;;
6280;SDS011;3173;48.204;11.612;2022-08-19T13:41:32;4.13;;;1.70;;
6280;SDS011;3173;48.204;11.612;2022-08-19T13:43:58;3.30;;;2.17;;
6280;SDS011;3173;48.204;11.612;2022-08-19T13:46:24;3.00;;;2.40;;
6280;SDS011;3173;48.204;11.612;2022-08-19T13:48:52;2.30;;;1.60;;
6280;SDS011;3173;48.204;11.612;2022-08-19T13:51:18;2.17;;;1.83;;
6280;SDS011;3173;48.204;11.612;2022-08-19T13:53:44;2.30;;;1.80;;
6280;SDS011;3173;48.204;11.612;2022-08-19T13:56:12;2.83;;;2.07;;
6280;SDS011;3173;48.204;11.612;2022-08-19T13:58:38;2.40;;;1.80;;
6280;SDS011;3173;48.204;11.612;2022-08-19T14:01:05;3.10;;;2.27;;
6280;SDS011;3173;48.204;11.612;2022-08-19T14:03:31;3.00;;;2.50;;
6280;SDS011;3173;48.204;11.612;2022-08-19T14:05:58;2.70;;;2.30;;
6280;SDS011;3173;48.204;11.612;2022-08-19T14:08:24;4.80;;;2.60;;
6280;SDS011;3173;48.204;11.612;2022-08-19T14:10:50;2.90;;;2.53;;
6280;SDS011;3173;48.204;11.612;2022-08-19T14:13:17;3.90;;;3.30;;
6280;SDS011;3173;48.204;11.612;2022-08-19T14:15:43;4.27;;;3.17;;
6280;SDS011;3173;48.204;11.612;2022-08-19T14:18:09;5.37;;;3.70;;
6280;SDS011;3173;48.204;11.612;2022-08-19T14:20:35;4.07;;;3.17;;
6280;SDS011;3173;48.204;11.612;2022-08-19T14:23:02;3.63;;;2.87;;
6280;SDS011;3173;48.204;11.612;2022-08-19T14:25:30;4.40;;;3.37;;
6280;SDS011;3173;48.204;11.612;2022-08-19T14:27:57;5.30;;;2.70;;
6280;SDS011;3173;48.204;11.612;2022-08-19T14:30:24;3.23;;;2.70;;
6280;SDS011;3173;48.204;11.612;2022-08-19T14:32:51;3.77;;;3.30;;
6280;SDS011;3173;48.204;11.612;2022-08-19T14:35:19;3.90;;;3.23;;
6280;SDS011;3173;48.204;11.612;2022-08-19T14:37:46;4.17;;;3.77;;
6280;SDS011;3173;48.204;11.612;2022-08-19T14:40:13;4.43;;;3.40;;
6280;SDS011;3173;48.204;11.612;2022-08-19T14:42:40;4.57;;;3.07;;
6280;SDS011;3173;48.204;11.612;2022-08-19T14:45:06;3.07;;;2.73;;
6280;SDS011;3173;48.204;11.612;2022-08-19T14:47:33;2.87;;;2.50;;
6280;SDS011;3173;48.204;11.612;2022-08-19T14:49:59;3.73;;;3.33;;